KSCF/SCF METAR and TAF weather

Enter ICAO airport designator
Station Type Date Time Source
KSCF METAR 2020/01/19 14:35 UTC NOAA

KSCF 191435Z AUTO 01022G28KT 10SM OVC042 12/04 A3031 RMK A01


Station Type Date Time Source
KSCF Decoded METAR 2020/01/19 14:35 UTC NOAA

South Marsh 268, LA, United States (KSCF) 29-06-57N 091-52-16W
Jan 19, 2020 - 09:35 AM EST / 2020.01.19 1435 UTC
Wind: from the N (010 degrees) at 25 MPH (22 KT) gusting to 32 MPH (28 KT):0
Visibility: 10 mile(s):0
Sky conditions: overcast
Temperature: 53 F (12 C)
Dew Point: 39 F (4 C)
Relative Humidity: 57%
Pressure (altimeter): 30.31 in. Hg (1026 hPa)
ob: KSCF 191435Z AUTO 01022G28KT 10SM OVC042 12/04 A3031 RMK A01
cycle: 14

Station Type Date Time Source
KSCF TAF UTC NOAA

Error!

Example: see airport list